Hovedside
METAR-TAF:

METAR-TAF

Lufthavner :

Tongatapu, Tonga

Fua'amotu internasjonale lufthavn

breddegrad: 21-14S, lengdegrad: 175-09W, høyde over havet: 38 m

Gjeldene værobservasjon

Denne rapporten ble laget for 1 time og 4 minutter siden, klokken 06:00 UTC
Flau vind
Temperatur 25°C
Luftfuktighet 79%
Trykk 1013 hPa
Sikt 10 km eller mer
Få skyer i en høyde av 900 ft
Få skyer i en høyde av 1500 ft, Tårnskyer (cumulus).
Brutte skyer i en høyde av 14000 ft

METAR: NFTF 250600Z 00000KT 9999 FEW009 FEW015TCU BKN140 25/21 Q1013 RMK COR WIND CALM

Tid: 20:04 (07:04 UTC)

Varsel

Denne rapporten ble laget for 2 timer og 1 minutter siden, klokken 05:03 UTC
Varsel gyldig fra 25. klokken 06 UTC til 26. klokken 06 UTC
Vind 6 kt fra Øst-sørøst
Sikt 10 km eller mer
Få skyer i en høyde av 1000 ft
Spredte skyer i en høyde av 1700 ft

TAF: NFTF 250503Z 2506/2606 12006KT 9999 FEW010 SCT017

Værobservasjoner og værvarsel for over 4000 flyplasser (METAR- og TAF-rapporter).

Tilgjengelige stasjoner er representert av de røde og gule prikkene på kartet.

Hold musepekeren over prikken for å se navnet på stasjonen.

Klikk så for å se værobservasjoner og -varsler.

For å forandre kartet kan du klikke på den grønne knappen med svart kryss for å zoome inn, på den grønne knappen med strek for å zoome ut, eller på de grønne pilene for å se tilstøtende kart.


METAR-TAF: